Terminal Aerodrome Forecast
Issued by NWS

Current Version | Previous Version | Graphics & Text | Print | Product List | Glossary Off
Versions: 1 2 3 4 5 6 7 8 9 10 11 12 13 14 15 16 17 18 19 20 21 22 23 24 25

000
FTUS41 KILN 292300
TAFLUK
TAF
KLUK 292335Z 3000/3024 20007KT P6SM VCSH SCT040
     FM300200 20003KT P6SM SCT040
     FM300800 00000KT 3SM BR SCT040
     FM301300 20009KT P6SM SCT040
     FM301800 20011G19KT P6SM VCTS BKN050CB
     FM302100 20011G19KT P6SM SCT050=

USA.gov is the U.S. government's official web portal to all federal, state and local government web resources and services.